Terminal Aerodrome Forecast
Issued by NWS

Home | Current Version | Previous Version | Text Only | Print | Product List | Glossary On
Versions: 1 2 3 4 5 6 7 8 9 10 11 12 13 14 15 16 17 18 19 20 21 22 23 24 25 26 27 28 29
000
FTUS41 KOKX 261129
TAFGON
TAF
KGON 261129Z 2612/2712 VRB01KT 1/2SM FG OVC003
      TEMPO 2612/2613 4SM BR
     FM261300 04003KT 1 1/2SM BR BKN006
     FM261500 14006KT 4SM BR BKN008
      TEMPO 2615/2617 6SM HZ SCT008
     FM261700 16007KT P6SM SCT010
     FM261900 15007KT P6SM SCT015 BKN250
     FM270100 11003KT 3SM BR OVC008
     FM270300 06002KT 1SM BR OVC005=

USA.gov is the U.S. government's official web portal to all federal, state and local government web resources and services.